Time;durP1;ratioP1;P1;durP2;ratioP2;P2;SDS_P1;SDS_P2;PMS_P1;PMS_P2;Temp;Humidity;BMP_temperature;BMP_pressure;BME280_temperature;BME280_humidity;BME280_pressure;Samples;Min_cycle;Max_cycle;Signal;HPM_P1;HPM_P2
2020/01/21 00:00:24;;;;;;;45.15001;25.05;;;;;;;-0.54;97.07031;97451.93;;;;
2020/01/21 00:01:45;;;;;;;45.15001;25.05;;;;;;;-0.54;97.07031;97451.93;;;;
2020/01/21 00:08:03;;;;;;;36.9;21.8;;;;;;;-0.73;97.30469;97448.13;;;;
2020/01/21 00:09:04;;;;;;;36.9;21.8;;;;;;;-0.73;97.30469;97448.13;;;;
2020/01/21 00:10:13;;;;;;;36.9;21.8;;;;;;;-0.73;97.30469;97448.13;;;;
2020/01/21 00:11:13;;;;;;;36.9;21.8;;;;;;;-0.73;97.30469;97448.13;;;;
2020/01/21 00:12:14;;;;;;;36.9;21.8;;;;;;;-0.73;97.30469;97448.13;;;;
2020/01/21 00:13:17;;;;;;;36.9;21.8;;;;;;;-0.73;97.30469;97448.13;;;;
2020/01/21 00:14:17;;;;;;;36.9;21.8;;;;;;;-0.73;97.30469;97448.13;;;;
2020/01/21 00:15:18;;;;;;;36.9;21.8;;;;;;;-0.73;97.30469;97448.13;;;;
2020/01/21 00:16:31;;;;;;;36.9;21.8;;;;;;;-0.73;97.30469;97448.13;;;;
2020/01/21 00:17:31;;;;;;;36.9;21.8;;;;;;;-0.73;97.30469;97448.13;;;;
2020/01/21 00:18:40;;;;;;;36.39999;21.3;;;;;;;-1;97.52246;97450.16;;;;
2020/01/21 00:19:41;;;;;;;36.39999;21.3;;;;;;;-1;97.52246;97450.16;;;;
2020/01/21 00:20:45;;;;;;;36.39999;21.3;;;;;;;-1;97.52246;97450.16;;;;
2020/01/21 00:21:45;;;;;;;36.39999;21.3;;;;;;;-1;97.52246;97450.16;;;;
2020/01/21 00:22:46;;;;;;;36.39999;21.3;;;;;;;-1;97.52246;97450.16;;;;
2020/01/21 00:23:46;;;;;;;36.39999;21.3;;;;;;;-1;97.52246;97450.16;;;;
2020/01/21 00:24:48;;;;;;;36.39999;21.3;;;;;;;-1;97.52246;97450.16;;;;
2020/01/21 00:25:49;;;;;;;36.39999;21.3;;;;;;;-1;97.52246;97450.16;;;;
2020/01/21 00:26:49;;;;;;;36.39999;21.3;;;;;;;-1;97.52246;97450.16;;;;
2020/01/21 00:27:50;;;;;;;36.39999;21.3;;;;;;;-1;97.52246;97450.16;;;;
2020/01/21 00:28:51;;;;;;;38.2;23.3;;;;;;;-1.05;97.71777;97455.8;;;;
2020/01/21 00:29:51;;;;;;;38.2;23.3;;;;;;;-1.05;97.71777;97455.8;;;;
2020/01/21 00:30:52;;;;;;;38.2;23.3;;;;;;;-1.05;97.71777;97455.8;;;;
2020/01/21 00:31:53;;;;;;;38.2;23.3;;;;;;;-1.05;97.71777;97455.8;;;;
2020/01/21 00:32:53;;;;;;;38.2;23.3;;;;;;;-1.05;97.71777;97455.8;;;;
2020/01/21 00:33:54;;;;;;;38.2;23.3;;;;;;;-1.05;97.71777;97455.8;;;;
2020/01/21 00:34:54;;;;;;;38.2;23.3;;;;;;;-1.05;97.71777;97455.8;;;;
2020/01/21 00:35:55;;;;;;;38.2;23.3;;;;;;;-1.05;97.71777;97455.8;;;;
2020/01/21 00:36:55;;;;;;;38.2;23.3;;;;;;;-1.05;97.71777;97455.8;;;;
2020/01/21 00:37:56;;;;;;;38.2;23.3;;;;;;;-1.05;97.71777;97455.8;;;;
2020/01/21 00:38:57;;;;;;;38.2;23.3;;;;;;;-1.05;97.71777;97455.8;;;;
2020/01/21 00:39:57;;;;;;;37.8;22.3;;;;;;;-0.99;97.62988;97465.94;;;;
2020/01/21 00:40:58;;;;;;;37.8;22.3;;;;;;;-0.99;97.62988;97465.94;;;;
2020/01/21 00:41:59;;;;;;;37.8;22.3;;;;;;;-0.99;97.62988;97465.94;;;;
2020/01/21 00:43:00;;;;;;;37.8;22.3;;;;;;;-0.99;97.62988;97465.94;;;;
2020/01/21 00:44:00;;;;;;;37.8;22.3;;;;;;;-0.99;97.62988;97465.94;;;;
2020/01/21 00:45:01;;;;;;;37.8;22.3;;;;;;;-0.99;97.62988;97465.94;;;;
2020/01/21 00:46:01;;;;;;;37.8;22.3;;;;;;;-0.99;97.62988;97465.94;;;;
2020/01/21 00:47:02;;;;;;;37.8;22.3;;;;;;;-0.99;97.62988;97465.94;;;;
2020/01/21 00:48:05;;;;;;;37.8;22.3;;;;;;;-0.99;97.62988;97465.94;;;;
2020/01/21 00:49:06;;;;;;;37.8;22.3;;;;;;;-0.99;97.62988;97465.94;;;;
2020/01/21 00:50:07;;;;;;;43.35;24.7;;;;;;;-0.95;97.46289;97465.23;;;;
2020/01/21 00:51:07;;;;;;;43.35;24.7;;;;;;;-0.95;97.46289;97465.23;;;;
2020/01/21 00:52:12;;;;;;;43.35;24.7;;;;;;;-0.95;97.46289;97465.23;;;;
2020/01/21 00:53:14;;;;;;;43.35;24.7;;;;;;;-0.95;97.46289;97465.23;;;;
2020/01/21 00:54:16;;;;;;;43.35;24.7;;;;;;;-0.95;97.46289;97465.23;;;;
2020/01/21 00:55:16;;;;;;;43.35;24.7;;;;;;;-0.95;97.46289;97465.23;;;;
2020/01/21 00:56:20;;;;;;;43.35;24.7;;;;;;;-0.95;97.46289;97465.23;;;;
2020/01/21 00:57:20;;;;;;;43.35;24.7;;;;;;;-0.95;97.46289;97465.23;;;;
2020/01/21 00:58:22;;;;;;;43.35;24.7;;;;;;;-0.95;97.46289;97465.23;;;;
2020/01/21 00:59:22;;;;;;;43.35;24.7;;;;;;;-0.95;97.46289;97465.23;;;;
2020/01/21 01:00:23;;;;;;;43.35;24.7;;;;;;;-0.95;97.46289;97465.23;;;;
2020/01/21 01:01:58;;;;;;;41.55;23.05;;;;;;;-0.85;97.42188;97464.51;;;;
2020/01/21 01:03:06;;;;;;;41.55;23.05;;;;;;;-0.85;97.42188;97464.51;;;;
2020/01/21 01:04:09;;;;;;;41.55;23.05;;;;;;;-0.85;97.42188;97464.51;;;;
2020/01/21 01:05:25;;;;;;;41.55;23.05;;;;;;;-0.85;97.42188;97464.51;;;;
2020/01/21 01:06:28;;;;;;;41.55;23.05;;;;;;;-0.85;97.42188;97464.51;;;;
2020/01/21 01:07:29;;;;;;;41.55;23.05;;;;;;;-0.85;97.42188;97464.51;;;;
2020/01/21 01:08:29;;;;;;;41.55;23.05;;;;;;;-0.85;97.42188;97464.51;;;;
2020/01/21 01:09:30;;;;;;;41.55;23.05;;;;;;;-0.85;97.42188;97464.51;;;;
2020/01/21 01:10:34;;;;;;;41.55;23.05;;;;;;;-0.85;97.42188;97464.51;;;;
2020/01/21 01:11:37;;;;;;;43.45;23.9;;;;;;;-0.85;97.23828;97466.27;;;;
2020/01/21 01:12:39;;;;;;;43.45;23.9;;;;;;;-0.85;97.23828;97466.27;;;;
2020/01/21 01:13:42;;;;;;;43.45;23.9;;;;;;;-0.85;97.23828;97466.27;;;;
2020/01/21 01:14:43;;;;;;;43.45;23.9;;;;;;;-0.85;97.23828;97466.27;;;;
2020/01/21 01:15:44;;;;;;;43.45;23.9;;;;;;;-0.85;97.23828;97466.27;;;;
2020/01/21 01:16:44;;;;;;;43.45;23.9;;;;;;;-0.85;97.23828;97466.27;;;;
2020/01/21 01:17:51;;;;;;;43.45;23.9;;;;;;;-0.85;97.23828;97466.27;;;;
2020/01/21 01:18:56;;;;;;;43.45;23.9;;;;;;;-0.85;97.23828;97466.27;;;;
2020/01/21 01:23:18;;;;;;;39.95;23.3;;;;;;;-0.89;97.2793;97457.28;;;;
2020/01/21 01:24:20;;;;;;;39.95;23.3;;;;;;;-0.89;97.2793;97457.28;;;;
2020/01/21 01:25:25;;;;;;;39.95;23.3;;;;;;;-0.89;97.2793;97457.28;;;;
2020/01/21 01:26:26;;;;;;;39.95;23.3;;;;;;;-0.89;97.2793;97457.28;;;;
2020/01/21 01:27:26;;;;;;;39.95;23.3;;;;;;;-0.89;97.2793;97457.28;;;;
2020/01/21 01:28:27;;;;;;;39.95;23.3;;;;;;;-0.89;97.2793;97457.28;;;;
2020/01/21 01:29:28;;;;;;;39.95;23.3;;;;;;;-0.89;97.2793;97457.28;;;;
2020/01/21 01:30:28;;;;;;;39.95;23.3;;;;;;;-0.89;97.2793;97457.28;;;;
2020/01/21 01:34:30;;;;;;;37.7;22.6;;;;;;;-0.86;97.26465;97445.61;;;;
2020/01/21 01:35:30;;;;;;;37.7;22.6;;;;;;;-0.86;97.26465;97445.61;;;;
2020/01/21 01:36:31;;;;;;;37.7;22.6;;;;;;;-0.86;97.26465;97445.61;;;;
2020/01/21 01:37:32;;;;;;;37.7;22.6;;;;;;;-0.86;97.26465;97445.61;;;;
2020/01/21 01:38:32;;;;;;;37.7;22.6;;;;;;;-0.86;97.26465;97445.61;;;;
2020/01/21 01:42:39;;;;;;;37.7;22.6;;;;;;;-0.86;97.26465;97445.61;;;;
2020/01/21 01:43:39;;;;;;;39.45;22.6;;;;;;;-0.93;97.06348;97452.72;;;;
2020/01/21 01:44:40;;;;;;;39.45;22.6;;;;;;;-0.93;97.06348;97452.72;;;;
2020/01/21 01:45:41;;;;;;;39.45;22.6;;;;;;;-0.93;97.06348;97452.72;;;;
2020/01/21 01:46:41;;;;;;;39.45;22.6;;;;;;;-0.93;97.06348;97452.72;;;;
2020/01/21 01:47:42;;;;;;;39.45;22.6;;;;;;;-0.93;97.06348;97452.72;;;;
2020/01/21 01:48:42;;;;;;;39.45;22.6;;;;;;;-0.93;97.06348;97452.72;;;;
2020/01/21 01:49:44;;;;;;;39.45;22.6;;;;;;;-0.93;97.06348;97452.72;;;;
2020/01/21 01:50:44;;;;;;;39.45;22.6;;;;;;;-0.93;97.06348;97452.72;;;;
2020/01/21 01:51:45;;;;;;;39.45;22.6;;;;;;;-0.93;97.06348;97452.72;;;;
2020/01/21 01:52:46;;;;;;;39.45;22.6;;;;;;;-0.93;97.06348;97452.72;;;;
2020/01/21 01:53:46;;;;;;;35.75;20.95;;;;;;;-0.98;97.09375;97455.3;;;;
2020/01/21 01:54:47;;;;;;;35.75;20.95;;;;;;;-0.98;97.09375;97455.3;;;;
2020/01/21 01:55:52;;;;;;;35.75;20.95;;;;;;;-0.98;97.09375;97455.3;;;;
2020/01/21 01:56:53;;;;;;;35.75;20.95;;;;;;;-0.98;97.09375;97455.3;;;;
2020/01/21 01:57:53;;;;;;;35.75;20.95;;;;;;;-0.98;97.09375;97455.3;;;;
2020/01/21 01:59:00;;;;;;;35.75;20.95;;;;;;;-0.98;97.09375;97455.3;;;;
2020/01/21 02:00:09;;;;;;;35.75;20.95;;;;;;;-0.98;97.09375;97455.3;;;;
2020/01/21 02:01:29;;;;;;;35.75;20.95;;;;;;;-0.98;97.09375;97455.3;;;;
2020/01/21 02:03:35;;;;;;;35.75;20.95;;;;;;;-0.98;97.09375;97455.3;;;;
2020/01/21 02:05:10;;;;;;;37.85;21.95;;;;;;;-1.18;97.03613;97440.89;;;;
2020/01/21 02:09:43;;;;;;;37.85;21.95;;;;;;;-1.18;97.03613;97440.89;;;;
2020/01/21 02:11:26;;;;;;;37.85;21.95;;;;;;;-1.18;97.03613;97440.89;;;;
2020/01/21 02:17:42;;;;;;;40.45;23;;;;;;;-1.18;97.19141;97450.16;;;;
2020/01/21 02:18:43;;;;;;;40.45;23;;;;;;;-1.18;97.19141;97450.16;;;;
2020/01/21 02:19:43;;;;;;;40.45;23;;;;;;;-1.18;97.19141;97450.16;;;;
2020/01/21 02:20:44;;;;;;;40.45;23;;;;;;;-1.18;97.19141;97450.16;;;;
2020/01/21 02:21:44;;;;;;;40.45;23;;;;;;;-1.18;97.19141;97450.16;;;;
2020/01/21 02:22:45;;;;;;;40.45;23;;;;;;;-1.18;97.19141;97450.16;;;;
2020/01/21 02:23:45;;;;;;;40.45;23;;;;;;;-1.18;97.19141;97450.16;;;;
2020/01/21 02:24:46;;;;;;;40.45;23;;;;;;;-1.18;97.19141;97450.16;;;;
2020/01/21 02:25:47;;;;;;;40.8;23.65;;;;;;;-1.24;97.17871;97437.78;;;;
2020/01/21 02:26:47;;;;;;;40.8;23.65;;;;;;;-1.24;97.17871;97437.78;;;;
2020/01/21 02:27:48;;;;;;;40.8;23.65;;;;;;;-1.24;97.17871;97437.78;;;;
2020/01/21 02:29:12;;;;;;;40.8;23.65;;;;;;;-1.24;97.17871;97437.78;;;;
2020/01/21 02:30:12;;;;;;;40.8;23.65;;;;;;;-1.24;97.17871;97437.78;;;;
2020/01/21 02:31:18;;;;;;;40.8;23.65;;;;;;;-1.24;97.17871;97437.78;;;;
2020/01/21 02:32:19;;;;;;;40.8;23.65;;;;;;;-1.24;97.17871;97437.78;;;;
2020/01/21 02:33:19;;;;;;;40.8;23.65;;;;;;;-1.24;97.17871;97437.78;;;;
2020/01/21 02:34:19;;;;;;;40.8;23.65;;;;;;;-1.24;97.17871;97437.78;;;;
2020/01/21 02:35:20;;;;;;;40.8;23.65;;;;;;;-1.24;97.17871;97437.78;;;;
2020/01/21 02:36:23;;;;;;;41.45;23.8;;;;;;;-1.17;97.2998;97430.17;;;;
2020/01/21 02:37:23;;;;;;;41.45;23.8;;;;;;;-1.17;97.2998;97430.17;;;;
2020/01/21 02:38:24;;;;;;;41.45;23.8;;;;;;;-1.17;97.2998;97430.17;;;;
2020/01/21 02:39:24;;;;;;;41.45;23.8;;;;;;;-1.17;97.2998;97430.17;;;;
2020/01/21 02:40:26;;;;;;;41.45;23.8;;;;;;;-1.17;97.2998;97430.17;;;;
2020/01/21 02:41:44;;;;;;;41.45;23.8;;;;;;;-1.17;97.2998;97430.17;;;;
2020/01/21 02:42:44;;;;;;;41.45;23.8;;;;;;;-1.17;97.2998;97430.17;;;;
2020/01/21 02:43:49;;;;;;;41.45;23.8;;;;;;;-1.17;97.2998;97430.17;;;;
2020/01/21 02:44:52;;;;;;;41.45;23.8;;;;;;;-1.17;97.2998;97430.17;;;;
2020/01/21 02:45:59;;;;;;;41.45;23.8;;;;;;;-1.17;97.2998;97430.17;;;;
2020/01/21 02:47:23;;;;;;;41.60001;23.3;;;;;;;-1.18;97.33887;97428.5;;;;
2020/01/21 02:48:29;;;;;;;41.60001;23.3;;;;;;;-1.18;97.33887;97428.5;;;;
2020/01/21 02:49:34;;;;;;;41.60001;23.3;;;;;;;-1.18;97.33887;97428.5;;;;
2020/01/21 02:50:35;;;;;;;41.60001;23.3;;;;;;;-1.18;97.33887;97428.5;;;;
2020/01/21 02:51:36;;;;;;;41.60001;23.3;;;;;;;-1.18;97.33887;97428.5;;;;
2020/01/21 02:52:37;;;;;;;41.60001;23.3;;;;;;;-1.18;97.33887;97428.5;;;;
2020/01/21 02:53:38;;;;;;;41.60001;23.3;;;;;;;-1.18;97.33887;97428.5;;;;
2020/01/21 02:54:38;;;;;;;41.60001;23.3;;;;;;;-1.18;97.33887;97428.5;;;;
2020/01/21 02:55:39;;;;;;;41.60001;23.3;;;;;;;-1.18;97.33887;97428.5;;;;
2020/01/21 02:56:39;;;;;;;41.60001;23.3;;;;;;;-1.18;97.33887;97428.5;;;;
2020/01/21 02:57:40;;;;;;;37.25;21.1;;;;;;;-1.05;97.30469;97426.65;;;;
2020/01/21 02:58:40;;;;;;;37.25;21.1;;;;;;;-1.05;97.30469;97426.65;;;;
2020/01/21 02:59:41;;;;;;;37.25;21.1;;;;;;;-1.05;97.30469;97426.65;;;;
2020/01/21 03:00:41;;;;;;;37.25;21.1;;;;;;;-1.05;97.30469;97426.65;;;;
2020/01/21 03:01:49;;;;;;;37.25;21.1;;;;;;;-1.05;97.30469;97426.65;;;;
2020/01/21 03:02:50;;;;;;;37.25;21.1;;;;;;;-1.05;97.30469;97426.65;;;;
2020/01/21 03:03:50;;;;;;;37.25;21.1;;;;;;;-1.05;97.30469;97426.65;;;;
2020/01/21 03:04:53;;;;;;;37.25;21.1;;;;;;;-1.05;97.30469;97426.65;;;;
2020/01/21 03:05:54;;;;;;;37.25;21.1;;;;;;;-1.05;97.30469;97426.65;;;;
2020/01/21 03:06:56;;;;;;;37.25;21.1;;;;;;;-1.05;97.30469;97426.65;;;;
2020/01/21 03:07:57;;;;;;;39.1;20.3;;;;;;;-1;97.0791;97424.08;;;;
2020/01/21 03:08:58;;;;;;;39.1;20.3;;;;;;;-1;97.0791;97424.08;;;;
2020/01/21 03:09:59;;;;;;;39.1;20.3;;;;;;;-1;97.0791;97424.08;;;;
2020/01/21 03:11:00;;;;;;;39.1;20.3;;;;;;;-1;97.0791;97424.08;;;;
2020/01/21 03:12:01;;;;;;;39.1;20.3;;;;;;;-1;97.0791;97424.08;;;;
2020/01/21 03:13:02;;;;;;;39.1;20.3;;;;;;;-1;97.0791;97424.08;;;;
2020/01/21 03:14:02;;;;;;;39.1;20.3;;;;;;;-1;97.0791;97424.08;;;;
2020/01/21 03:15:03;;;;;;;39.1;20.3;;;;;;;-1;97.0791;97424.08;;;;
2020/01/21 03:16:04;;;;;;;39.1;20.3;;;;;;;-1;97.0791;97424.08;;;;
2020/01/21 03:17:05;;;;;;;39.1;20.3;;;;;;;-1;97.0791;97424.08;;;;
2020/01/21 03:18:06;;;;;;;39.1;20.3;;;;;;;-1;97.0791;97424.08;;;;
2020/01/21 03:19:06;;;;;;;38.05;21.05;;;;;;;-0.89;97.10352;97425.03;;;;
2020/01/21 03:20:07;;;;;;;38.05;21.05;;;;;;;-0.89;97.10352;97425.03;;;;
2020/01/21 03:21:07;;;;;;;38.05;21.05;;;;;;;-0.89;97.10352;97425.03;;;;
2020/01/21 03:22:09;;;;;;;38.05;21.05;;;;;;;-0.89;97.10352;97425.03;;;;
2020/01/21 03:23:12;;;;;;;38.05;21.05;;;;;;;-0.89;97.10352;97425.03;;;;
2020/01/21 03:24:12;;;;;;;38.05;21.05;;;;;;;-0.89;97.10352;97425.03;;;;
2020/01/21 03:25:12;;;;;;;38.05;21.05;;;;;;;-0.89;97.10352;97425.03;;;;
2020/01/21 03:26:13;;;;;;;38.05;21.05;;;;;;;-0.89;97.10352;97425.03;;;;
2020/01/21 03:27:13;;;;;;;38.05;21.05;;;;;;;-0.89;97.10352;97425.03;;;;
2020/01/21 03:28:16;;;;;;;38.05;21.05;;;;;;;-0.89;97.10352;97425.03;;;;
2020/01/21 03:29:17;;;;;;;36.35;20.65;;;;;;;-0.86;96.93359;97415.51;;;;
2020/01/21 03:30:19;;;;;;;36.35;20.65;;;;;;;-0.86;96.93359;97415.51;;;;
2020/01/21 03:31:19;;;;;;;36.35;20.65;;;;;;;-0.86;96.93359;97415.51;;;;
2020/01/21 03:32:20;;;;;;;36.35;20.65;;;;;;;-0.86;96.93359;97415.51;;;;
2020/01/21 03:33:20;;;;;;;36.35;20.65;;;;;;;-0.86;96.93359;97415.51;;;;
2020/01/21 03:34:21;;;;;;;36.35;20.65;;;;;;;-0.86;96.93359;97415.51;;;;
2020/01/21 03:35:24;;;;;;;36.35;20.65;;;;;;;-0.86;96.93359;97415.51;;;;
2020/01/21 03:36:26;;;;;;;36.35;20.65;;;;;;;-0.86;96.93359;97415.51;;;;
2020/01/21 03:37:43;;;;;;;36.35;20.65;;;;;;;-0.86;96.93359;97415.51;;;;
2020/01/21 03:38:48;;;;;;;36.35;20.65;;;;;;;-0.86;96.93359;97415.51;;;;
2020/01/21 03:39:50;;;;;;;33.55;19.25;;;;;;;-0.79;96.90918;97405.24;;;;
2020/01/21 03:40:52;;;;;;;33.55;19.25;;;;;;;-0.79;96.90918;97405.24;;;;
2020/01/21 03:41:54;;;;;;;33.55;19.25;;;;;;;-0.79;96.90918;97405.24;;;;
2020/01/21 03:42:54;;;;;;;33.55;19.25;;;;;;;-0.79;96.90918;97405.24;;;;
2020/01/21 03:43:58;;;;;;;33.55;19.25;;;;;;;-0.79;96.90918;97405.24;;;;
2020/01/21 03:44:59;;;;;;;33.55;19.25;;;;;;;-0.79;96.90918;97405.24;;;;
2020/01/21 03:46:15;;;;;;;33.55;19.25;;;;;;;-0.79;96.90918;97405.24;;;;
2020/01/21 03:47:26;;;;;;;33.55;19.25;;;;;;;-0.79;96.90918;97405.24;;;;
2020/01/21 03:53:39;;;;;;;35.1;19.3;;;;;;;-0.81;96.77051;97408.09;;;;
2020/01/21 03:54:40;;;;;;;35.1;19.3;;;;;;;-0.81;96.77051;97408.09;;;;
2020/01/21 03:55:40;;;;;;;35.1;19.3;;;;;;;-0.81;96.77051;97408.09;;;;
2020/01/21 03:56:41;;;;;;;35.1;19.3;;;;;;;-0.81;96.77051;97408.09;;;;
2020/01/21 03:57:41;;;;;;;35.1;19.3;;;;;;;-0.81;96.77051;97408.09;;;;
2020/01/21 03:58:42;;;;;;;35.1;19.3;;;;;;;-0.81;96.77051;97408.09;;;;
2020/01/21 03:59:43;;;;;;;35.1;19.3;;;;;;;-0.81;96.77051;97408.09;;;;
2020/01/21 04:00:43;;;;;;;35.1;19.3;;;;;;;-0.81;96.77051;97408.09;;;;
2020/01/21 04:01:44;;;;;;;33.05;18.65;;;;;;;-0.86;96.80957;97412.86;;;;
2020/01/21 04:02:44;;;;;;;33.05;18.65;;;;;;;-0.86;96.80957;97412.86;;;;
2020/01/21 04:03:45;;;;;;;33.05;18.65;;;;;;;-0.86;96.80957;97412.86;;;;
2020/01/21 04:04:46;;;;;;;33.05;18.65;;;;;;;-0.86;96.80957;97412.86;;;;
2020/01/21 04:05:46;;;;;;;33.05;18.65;;;;;;;-0.86;96.80957;97412.86;;;;
2020/01/21 04:06:47;;;;;;;33.05;18.65;;;;;;;-0.86;96.80957;97412.86;;;;
2020/01/21 04:07:47;;;;;;;33.05;18.65;;;;;;;-0.86;96.80957;97412.86;;;;
2020/01/21 04:08:48;;;;;;;33.05;18.65;;;;;;;-0.86;96.80957;97412.86;;;;
2020/01/21 04:09:48;;;;;;;33.05;18.65;;;;;;;-0.86;96.80957;97412.86;;;;
2020/01/21 04:10:49;;;;;;;33.05;18.65;;;;;;;-0.86;96.80957;97412.86;;;;
2020/01/21 04:11:49;;;;;;;34.2;19.7;;;;;;;-0.94;96.69922;97414.78;;;;
2020/01/21 04:12:50;;;;;;;34.2;19.7;;;;;;;-0.94;96.69922;97414.78;;;;
2020/01/21 04:13:50;;;;;;;34.2;19.7;;;;;;;-0.94;96.69922;97414.78;;;;
2020/01/21 04:14:51;;;;;;;34.2;19.7;;;;;;;-0.94;96.69922;97414.78;;;;
2020/01/21 04:15:51;;;;;;;34.2;19.7;;;;;;;-0.94;96.69922;97414.78;;;;
2020/01/21 04:16:53;;;;;;;34.2;19.7;;;;;;;-0.94;96.69922;97414.78;;;;
2020/01/21 04:18:00;;;;;;;34.2;19.7;;;;;;;-0.94;96.69922;97414.78;;;;
2020/01/21 04:19:02;;;;;;;34.2;19.7;;;;;;;-0.94;96.69922;97414.78;;;;
2020/01/21 04:20:02;;;;;;;34.2;19.7;;;;;;;-0.94;96.69922;97414.78;;;;
2020/01/21 04:21:03;;;;;;;34.2;19.7;;;;;;;-0.94;96.69922;97414.78;;;;
2020/01/21 04:22:03;;;;;;;34.2;19.7;;;;;;;-0.94;96.69922;97414.78;;;;
2020/01/21 04:23:04;;;;;;;31.45;18.8;;;;;;;-1.01;96.68457;97406.49;;;;
2020/01/21 04:24:37;;;;;;;31.45;18.8;;;;;;;-1.01;96.68457;97406.49;;;;
2020/01/21 04:25:39;;;;;;;31.45;18.8;;;;;;;-1.01;96.68457;97406.49;;;;
2020/01/21 04:26:41;;;;;;;31.45;18.8;;;;;;;-1.01;96.68457;97406.49;;;;
2020/01/21 04:27:42;;;;;;;31.45;18.8;;;;;;;-1.01;96.68457;97406.49;;;;
2020/01/21 04:28:51;;;;;;;31.45;18.8;;;;;;;-1.01;96.68457;97406.49;;;;
2020/01/21 04:29:51;;;;;;;31.45;18.8;;;;;;;-1.01;96.68457;97406.49;;;;
2020/01/21 04:30:52;;;;;;;31.45;18.8;;;;;;;-1.01;96.68457;97406.49;;;;
2020/01/21 04:31:53;;;;;;;31.45;18.8;;;;;;;-1.01;96.68457;97406.49;;;;
2020/01/21 04:32:54;;;;;;;31.3;18.6;;;;;;;-1.02;96.52734;97402.12;;;;
2020/01/21 04:33:56;;;;;;;31.3;18.6;;;;;;;-1.02;96.52734;97402.12;;;;
2020/01/21 04:34:59;;;;;;;31.3;18.6;;;;;;;-1.02;96.52734;97402.12;;;;
2020/01/21 04:36:00;;;;;;;31.3;18.6;;;;;;;-1.02;96.52734;97402.12;;;;
2020/01/21 04:37:02;;;;;;;31.3;18.6;;;;;;;-1.02;96.52734;97402.12;;;;
2020/01/21 04:38:04;;;;;;;31.3;18.6;;;;;;;-1.02;96.52734;97402.12;;;;
2020/01/21 04:39:08;;;;;;;31.3;18.6;;;;;;;-1.02;96.52734;97402.12;;;;
2020/01/21 04:40:19;;;;;;;31.3;18.6;;;;;;;-1.02;96.52734;97402.12;;;;
2020/01/21 04:41:21;;;;;;;31.3;18.6;;;;;;;-1.02;96.52734;97402.12;;;;
2020/01/21 04:42:22;;;;;;;31.3;18.6;;;;;;;-1.02;96.52734;97402.12;;;;
2020/01/21 04:43:23;;;;;;;31.3;18.6;;;;;;;-1.02;96.52734;97402.12;;;;
2020/01/21 04:44:25;;;;;;;29.35;17.6;;;;;;;-1.12;96.4209;97394.03;;;;
2020/01/21 04:45:26;;;;;;;29.35;17.6;;;;;;;-1.12;96.4209;97394.03;;;;
2020/01/21 04:46:27;;;;;;;29.35;17.6;;;;;;;-1.12;96.4209;97394.03;;;;
2020/01/21 04:47:27;;;;;;;29.35;17.6;;;;;;;-1.12;96.4209;97394.03;;;;
2020/01/21 04:48:28;;;;;;;29.35;17.6;;;;;;;-1.12;96.4209;97394.03;;;;
2020/01/21 04:49:28;;;;;;;29.35;17.6;;;;;;;-1.12;96.4209;97394.03;;;;
2020/01/21 04:50:29;;;;;;;29.35;17.6;;;;;;;-1.12;96.4209;97394.03;;;;
2020/01/21 04:51:29;;;;;;;29.35;17.6;;;;;;;-1.12;96.4209;97394.03;;;;
2020/01/21 04:52:30;;;;;;;29.35;17.6;;;;;;;-1.12;96.4209;97394.03;;;;
2020/01/21 04:53:30;;;;;;;29.35;17.6;;;;;;;-1.12;96.4209;97394.03;;;;
2020/01/21 04:54:31;;;;;;;31.9;18.3;;;;;;;-1.21;96.40137;97395.18;;;;
2020/01/21 04:55:31;;;;;;;31.9;18.3;;;;;;;-1.21;96.40137;97395.18;;;;
2020/01/21 04:56:32;;;;;;;31.9;18.3;;;;;;;-1.21;96.40137;97395.18;;;;
2020/01/21 04:57:32;;;;;;;31.9;18.3;;;;;;;-1.21;96.40137;97395.18;;;;
2020/01/21 04:58:34;;;;;;;31.9;18.3;;;;;;;-1.21;96.40137;97395.18;;;;
2020/01/21 04:59:35;;;;;;;31.9;18.3;;;;;;;-1.21;96.40137;97395.18;;;;
2020/01/21 05:00:35;;;;;;;31.9;18.3;;;;;;;-1.21;96.40137;97395.18;;;;
2020/01/21 05:01:35;;;;;;;31.9;18.3;;;;;;;-1.21;96.40137;97395.18;;;;
2020/01/21 05:02:36;;;;;;;31.9;18.3;;;;;;;-1.21;96.40137;97395.18;;;;
2020/01/21 05:03:37;;;;;;;31.9;18.3;;;;;;;-1.21;96.40137;97395.18;;;;
2020/01/21 05:04:37;;;;;;;31.9;18.3;;;;;;;-1.21;96.40137;97395.18;;;;
2020/01/21 05:05:38;;;;;;;32.75;18;;;;;;;-1.42;96.25195;97393.6;;;;
2020/01/21 05:06:39;;;;;;;32.75;18;;;;;;;-1.42;96.25195;97393.6;;;;
2020/01/21 05:07:40;;;;;;;32.75;18;;;;;;;-1.42;96.25195;97393.6;;;;
2020/01/21 05:08:40;;;;;;;32.75;18;;;;;;;-1.42;96.25195;97393.6;;;;
2020/01/21 05:09:41;;;;;;;32.75;18;;;;;;;-1.42;96.25195;97393.6;;;;
2020/01/21 05:10:42;;;;;;;32.75;18;;;;;;;-1.42;96.25195;97393.6;;;;
2020/01/21 05:11:42;;;;;;;32.75;18;;;;;;;-1.42;96.25195;97393.6;;;;
2020/01/21 05:12:43;;;;;;;32.75;18;;;;;;;-1.42;96.25195;97393.6;;;;
2020/01/21 05:13:43;;;;;;;32.75;18;;;;;;;-1.42;96.25195;97393.6;;;;
2020/01/21 05:14:43;;;;;;;32.75;18;;;;;;;-1.42;96.25195;97393.6;;;;
2020/01/21 05:15:44;;;;;;;32;18.7;;;;;;;-1.85;96.58691;97385.29;;;;
2020/01/21 05:16:45;;;;;;;32;18.7;;;;;;;-1.85;96.58691;97385.29;;;;
2020/01/21 05:17:45;;;;;;;32;18.7;;;;;;;-1.85;96.58691;97385.29;;;;
2020/01/21 05:18:45;;;;;;;32;18.7;;;;;;;-1.85;96.58691;97385.29;;;;
2020/01/21 05:19:46;;;;;;;32;18.7;;;;;;;-1.85;96.58691;97385.29;;;;
2020/01/21 05:20:46;;;;;;;32;18.7;;;;;;;-1.85;96.58691;97385.29;;;;
2020/01/21 05:21:47;;;;;;;32;18.7;;;;;;;-1.85;96.58691;97385.29;;;;
2020/01/21 05:22:47;;;;;;;32;18.7;;;;;;;-1.85;96.58691;97385.29;;;;
2020/01/21 05:23:48;;;;;;;32;18.7;;;;;;;-1.85;96.58691;97385.29;;;;
2020/01/21 05:24:48;;;;;;;32;18.7;;;;;;;-1.85;96.58691;97385.29;;;;
2020/01/21 05:25:49;;;;;;;32;18.7;;;;;;;-1.85;96.58691;97385.29;;;;
2020/01/21 05:26:49;;;;;;;30.7;17.35;;;;;;;-2.1;96.87012;97402.53;;;;
2020/01/21 05:27:51;;;;;;;30.7;17.35;;;;;;;-2.1;96.87012;97402.53;;;;
2020/01/21 05:28:53;;;;;;;30.7;17.35;;;;;;;-2.1;96.87012;97402.53;;;;
2020/01/21 05:29:55;;;;;;;30.7;17.35;;;;;;;-2.1;96.87012;97402.53;;;;
2020/01/21 05:31:01;;;;;;;30.7;17.35;;;;;;;-2.1;96.87012;97402.53;;;;
2020/01/21 05:32:07;;;;;;;30.7;17.35;;;;;;;-2.1;96.87012;97402.53;;;;
2020/01/21 05:33:08;;;;;;;30.7;17.35;;;;;;;-2.1;96.87012;97402.53;;;;
2020/01/21 05:34:09;;;;;;;30.7;17.35;;;;;;;-2.1;96.87012;97402.53;;;;
2020/01/21 05:35:09;;;;;;;30.7;17.35;;;;;;;-2.1;96.87012;97402.53;;;;
2020/01/21 05:36:10;;;;;;;30.7;17.35;;;;;;;-2.1;96.87012;97402.53;;;;
2020/01/21 05:37:10;;;;;;;31.8;17.25;;;;;;;-2.23;96.94531;97405.61;;;;
2020/01/21 05:38:11;;;;;;;31.8;17.25;;;;;;;-2.23;96.94531;97405.61;;;;
2020/01/21 05:39:11;;;;;;;31.8;17.25;;;;;;;-2.23;96.94531;97405.61;;;;
2020/01/21 05:40:12;;;;;;;31.8;17.25;;;;;;;-2.23;96.94531;97405.61;;;;
2020/01/21 05:41:12;;;;;;;31.8;17.25;;;;;;;-2.23;96.94531;97405.61;;;;
2020/01/21 05:42:13;;;;;;;31.8;17.25;;;;;;;-2.23;96.94531;97405.61;;;;
2020/01/21 05:43:14;;;;;;;31.8;17.25;;;;;;;-2.23;96.94531;97405.61;;;;
2020/01/21 05:49:27;;;;;;;35.05;18.35;;;;;;;-2.38;96.73535;97400.97;;;;
2020/01/21 05:50:29;;;;;;;35.05;18.35;;;;;;;-2.38;96.73535;97400.97;;;;
2020/01/21 05:51:29;;;;;;;35.05;18.35;;;;;;;-2.38;96.73535;97400.97;;;;
2020/01/21 05:52:30;;;;;;;35.05;18.35;;;;;;;-2.38;96.73535;97400.97;;;;
2020/01/21 05:53:30;;;;;;;35.05;18.35;;;;;;;-2.38;96.73535;97400.97;;;;
2020/01/21 05:54:30;;;;;;;35.05;18.35;;;;;;;-2.38;96.73535;97400.97;;;;
2020/01/21 05:55:31;;;;;;;35.05;18.35;;;;;;;-2.38;96.73535;97400.97;;;;
2020/01/21 05:56:31;;;;;;;35.05;18.35;;;;;;;-2.38;96.73535;97400.97;;;;
2020/01/21 05:57:32;;;;;;;35.05;18.35;;;;;;;-2.38;96.73535;97400.97;;;;
2020/01/21 05:58:32;;;;;;;30.85;17.85;;;;;;;-2.5;96.76758;97398.32;;;;
2020/01/21 05:59:33;;;;;;;30.85;17.85;;;;;;;-2.5;96.76758;97398.32;;;;
2020/01/21 06:00:33;;;;;;;30.85;17.85;;;;;;;-2.5;96.76758;97398.32;;;;
2020/01/21 06:01:34;;;;;;;30.85;17.85;;;;;;;-2.5;96.76758;97398.32;;;;
2020/01/21 06:02:49;;;;;;;30.85;17.85;;;;;;;-2.5;96.76758;97398.32;;;;
2020/01/21 06:03:50;;;;;;;30.85;17.85;;;;;;;-2.5;96.76758;97398.32;;;;
2020/01/21 06:04:50;;;;;;;30.85;17.85;;;;;;;-2.5;96.76758;97398.32;;;;
2020/01/21 06:05:51;;;;;;;30.85;17.85;;;;;;;-2.5;96.76758;97398.32;;;;
2020/01/21 06:06:51;;;;;;;30.85;17.85;;;;;;;-2.5;96.76758;97398.32;;;;
2020/01/21 06:07:52;;;;;;;30.85;17.85;;;;;;;-2.5;96.76758;97398.32;;;;
2020/01/21 06:08:52;;;;;;;33.59999;18.45;;;;;;;-2.45;96.83008;97408.09;;;;
2020/01/21 06:09:53;;;;;;;33.59999;18.45;;;;;;;-2.45;96.83008;97408.09;;;;
2020/01/21 06:10:53;;;;;;;33.59999;18.45;;;;;;;-2.45;96.83008;97408.09;;;;
2020/01/21 06:11:54;;;;;;;33.59999;18.45;;;;;;;-2.45;96.83008;97408.09;;;;
2020/01/21 06:12:54;;;;;;;33.59999;18.45;;;;;;;-2.45;96.83008;97408.09;;;;
2020/01/21 06:13:55;;;;;;;33.59999;18.45;;;;;;;-2.45;96.83008;97408.09;;;;
2020/01/21 06:14:55;;;;;;;33.59999;18.45;;;;;;;-2.45;96.83008;97408.09;;;;
2020/01/21 06:15:56;;;;;;;33.59999;18.45;;;;;;;-2.45;96.83008;97408.09;;;;
2020/01/21 06:16:56;;;;;;;33.59999;18.45;;;;;;;-2.45;96.83008;97408.09;;;;
2020/01/21 06:17:57;;;;;;;33.59999;18.45;;;;;;;-2.45;96.83008;97408.09;;;;
2020/01/21 06:18:57;;;;;;;33.59999;18.45;;;;;;;-2.45;96.83008;97408.09;;;;
2020/01/21 06:19:57;;;;;;;34.55;18.4;;;;;;;-2.44;96.56543;97406.23;;;;
2020/01/21 06:20:58;;;;;;;34.55;18.4;;;;;;;-2.44;96.56543;97406.23;;;;
2020/01/21 06:21:59;;;;;;;34.55;18.4;;;;;;;-2.44;96.56543;97406.23;;;;
2020/01/21 06:22:59;;;;;;;34.55;18.4;;;;;;;-2.44;96.56543;97406.23;;;;